sensor_id;sensor_type;location;lat;lon;timestamp;temperature;humidity
10443;DHT22;5269;51.146;16.986;2024-01-15T00:00:10;1.20;99.90
10443;DHT22;5269;51.146;16.986;2024-01-15T00:02:38;1.20;99.90
10443;DHT22;5269;51.146;16.986;2024-01-15T00:05:06;1.20;99.90
10443;DHT22;5269;51.146;16.986;2024-01-15T00:07:35;1.30;99.90
10443;DHT22;5269;51.146;16.986;2024-01-15T00:10:02;1.30;99.90
10443;DHT22;5269;51.146;16.986;2024-01-15T00:12:29;1.40;99.90
10443;DHT22;5269;51.146;16.986;2024-01-15T00:14:56;1.40;99.90
10443;DHT22;5269;51.146;16.986;2024-01-15T00:17:23;1.40;99.90
10443;DHT22;5269;51.146;16.986;2024-01-15T00:19:52;1.40;99.90
10443;DHT22;5269;51.146;16.986;2024-01-15T00:22:19;1.40;99.90
10443;DHT22;5269;51.146;16.986;2024-01-15T00:24:49;1.40;99.90
10443;DHT22;5269;51.146;16.986;2024-01-15T00:27:19;1.50;99.90
10443;DHT22;5269;51.146;16.986;2024-01-15T00:29:46;1.50;99.90
10443;DHT22;5269;51.146;16.986;2024-01-15T00:32:13;1.60;99.90
10443;DHT22;5269;51.146;16.986;2024-01-15T00:34:42;1.40;99.90
10443;DHT22;5269;51.146;16.986;2024-01-15T00:37:09;1.50;99.90
10443;DHT22;5269;51.146;16.986;2024-01-15T00:39:36;1.50;99.90
10443;DHT22;5269;51.146;16.986;2024-01-15T00:42:08;1.50;99.90
10443;DHT22;5269;51.146;16.986;2024-01-15T00:44:35;1.50;99.90
10443;DHT22;5269;51.146;16.986;2024-01-15T00:47:03;1.60;99.90
10443;DHT22;5269;51.146;16.986;2024-01-15T00:49:30;1.60;99.90
10443;DHT22;5269;51.146;16.986;2024-01-15T00:51:58;1.60;99.90
10443;DHT22;5269;51.146;16.986;2024-01-15T00:54:24;1.60;99.90
10443;DHT22;5269;51.146;16.986;2024-01-15T00:56:52;1.60;1.00
10443;DHT22;5269;51.146;16.986;2024-01-15T00:59:20;1.70;1.00
10443;DHT22;5269;51.146;16.986;2024-01-15T01:01:49;1.70;1.00
10443;DHT22;5269;51.146;16.986;2024-01-15T01:04:20;1.70;1.00
10443;DHT22;5269;51.146;16.986;2024-01-15T01:06:47;1.70;1.00
10443;DHT22;5269;51.146;16.986;2024-01-15T01:09:14;1.70;99.90
10443;DHT22;5269;51.146;16.986;2024-01-15T01:11:43;1.70;1.00
10443;DHT22;5269;51.146;16.986;2024-01-15T01:14:11;1.70;1.00
10443;DHT22;5269;51.146;16.986;2024-01-15T01:16:39;1.70;1.00
10443;DHT22;5269;51.146;16.986;2024-01-15T01:19:08;1.70;1.00
10443;DHT22;5269;51.146;16.986;2024-01-15T01:21:37;1.70;1.00
10443;DHT22;5269;51.146;16.986;2024-01-15T01:24:09;1.70;1.00
10443;DHT22;5269;51.146;16.986;2024-01-15T01:26:36;1.70;97.90
10443;DHT22;5269;51.146;16.986;2024-01-15T01:29:03;1.70;1.00
10443;DHT22;5269;51.146;16.986;2024-01-15T01:31:30;1.70;99.90
10443;DHT22;5269;51.146;16.986;2024-01-15T01:33:59;1.70;94.70
10443;DHT22;5269;51.146;16.986;2024-01-15T01:36:26;1.70;90.80
10443;DHT22;5269;51.146;16.986;2024-01-15T01:38:53;1.70;1.00
10443;DHT22;5269;51.146;16.986;2024-01-15T01:41:22;1.70;1.00
10443;DHT22;5269;51.146;16.986;2024-01-15T01:43:50;1.80;99.90
10443;DHT22;5269;51.146;16.986;2024-01-15T01:46:17;1.80;99.90
10443;DHT22;5269;51.146;16.986;2024-01-15T01:48:44;1.80;1.00
10443;DHT22;5269;51.146;16.986;2024-01-15T01:51:13;1.80;1.00
10443;DHT22;5269;51.146;16.986;2024-01-15T01:53:41;1.80;99.90
10443;DHT22;5269;51.146;16.986;2024-01-15T01:56:08;1.90;1.00
10443;DHT22;5269;51.146;16.986;2024-01-15T01:58:36;1.80;1.00
10443;DHT22;5269;51.146;16.986;2024-01-15T02:01:03;1.80;1.00
10443;DHT22;5269;51.146;16.986;2024-01-15T02:03:31;1.80;99.90
10443;DHT22;5269;51.146;16.986;2024-01-15T02:05:59;1.70;1.00
10443;DHT22;5269;51.146;16.986;2024-01-15T02:08:28;1.70;99.90
10443;DHT22;5269;51.146;16.986;2024-01-15T02:10:55;1.60;1.00
10443;DHT22;5269;51.146;16.986;2024-01-15T02:13:24;1.60;1.00
10443;DHT22;5269;51.146;16.986;2024-01-15T02:15:57;1.60;57.30
10443;DHT22;5269;51.146;16.986;2024-01-15T02:18:23;1.40;1.00
10443;DHT22;5269;51.146;16.986;2024-01-15T02:20:52;1.20;99.90
10443;DHT22;5269;51.146;16.986;2024-01-15T02:23:21;1.20;99.90
10443;DHT22;5269;51.146;16.986;2024-01-15T02:25:48;1.10;99.90
10443;DHT22;5269;51.146;16.986;2024-01-15T02:28:16;1.20;99.90
10443;DHT22;5269;51.146;16.986;2024-01-15T02:30:43;1.10;99.90
10443;DHT22;5269;51.146;16.986;2024-01-15T02:33:11;1.10;99.90
10443;DHT22;5269;51.146;16.986;2024-01-15T02:35:38;1.10;99.90
10443;DHT22;5269;51.146;16.986;2024-01-15T02:38:06;1.10;99.90
10443;DHT22;5269;51.146;16.986;2024-01-15T02:40:35;1.10;99.90
10443;DHT22;5269;51.146;16.986;2024-01-15T02:43:02;1.10;99.90
10443;DHT22;5269;51.146;16.986;2024-01-15T02:45:31;1.10;99.90
10443;DHT22;5269;51.146;16.986;2024-01-15T02:47:58;1.00;99.90
10443;DHT22;5269;51.146;16.986;2024-01-15T02:50:25;1.00;99.90
10443;DHT22;5269;51.146;16.986;2024-01-15T02:52:52;1.10;99.90
10443;DHT22;5269;51.146;16.986;2024-01-15T02:55:19;1.00;99.90
10443;DHT22;5269;51.146;16.986;2024-01-15T02:57:54;1.00;99.90
10443;DHT22;5269;51.146;16.986;2024-01-15T03:00:20;1.10;99.90
10443;DHT22;5269;51.146;16.986;2024-01-15T03:02:51;1.10;99.90
10443;DHT22;5269;51.146;16.986;2024-01-15T03:05:20;1.10;99.90
10443;DHT22;5269;51.146;16.986;2024-01-15T03:07:49;1.10;99.90
10443;DHT22;5269;51.146;16.986;2024-01-15T03:10:19;1.20;99.90
10443;DHT22;5269;51.146;16.986;2024-01-15T03:12:46;1.30;99.90
10443;DHT22;5269;51.146;16.986;2024-01-15T03:15:15;1.30;99.90
10443;DHT22;5269;51.146;16.986;2024-01-15T03:17:41;1.50;1.00
10443;DHT22;5269;51.146;16.986;2024-01-15T03:20:10;1.50;1.00
10443;DHT22;5269;51.146;16.986;2024-01-15T03:22:37;1.50;99.90
10443;DHT22;5269;51.146;16.986;2024-01-15T03:25:07;1.60;99.90
10443;DHT22;5269;51.146;16.986;2024-01-15T03:27:37;1.50;99.90
10443;DHT22;5269;51.146;16.986;2024-01-15T03:30:07;1.40;1.00
10443;DHT22;5269;51.146;16.986;2024-01-15T03:32:43;1.40;1.00
10443;DHT22;5269;51.146;16.986;2024-01-15T03:35:10;1.40;1.00
10443;DHT22;5269;51.146;16.986;2024-01-15T03:37:40;1.50;1.00
10443;DHT22;5269;51.146;16.986;2024-01-15T03:40:08;1.40;1.00
10443;DHT22;5269;51.146;16.986;2024-01-15T03:42:35;1.50;1.00
10443;DHT22;5269;51.146;16.986;2024-01-15T03:45:07;1.40;1.00
10443;DHT22;5269;51.146;16.986;2024-01-15T03:47:35;1.40;1.00
10443;DHT22;5269;51.146;16.986;2024-01-15T03:50:03;1.30;1.00
10443;DHT22;5269;51.146;16.986;2024-01-15T03:52:32;1.40;1.00
10443;DHT22;5269;51.146;16.986;2024-01-15T03:55:03;1.40;1.00
10443;DHT22;5269;51.146;16.986;2024-01-15T03:57:31;1.40;1.00
10443;DHT22;5269;51.146;16.986;2024-01-15T03:59:58;1.40;1.00
10443;DHT22;5269;51.146;16.986;2024-01-15T04:02:25;1.40;1.00
10443;DHT22;5269;51.146;16.986;2024-01-15T04:04:53;1.40;99.90
10443;DHT22;5269;51.146;16.986;2024-01-15T04:07:20;1.50;99.90
10443;DHT22;5269;51.146;16.986;2024-01-15T04:09:47;1.40;1.00
10443;DHT22;5269;51.146;16.986;2024-01-15T04:12:14;1.40;1.00
10443;DHT22;5269;51.146;16.986;2024-01-15T04:14:41;1.40;1.00
10443;DHT22;5269;51.146;16.986;2024-01-15T04:17:08;1.50;1.00
10443;DHT22;5269;51.146;16.986;2024-01-15T04:19:35;1.50;99.90
10443;DHT22;5269;51.146;16.986;2024-01-15T04:22:03;1.50;1.00
10443;DHT22;5269;51.146;16.986;2024-01-15T04:24:31;1.50;1.00
10443;DHT22;5269;51.146;16.986;2024-01-15T04:26:58;1.60;1.00
10443;DHT22;5269;51.146;16.986;2024-01-15T04:29:25;1.60;99.90
10443;DHT22;5269;51.146;16.986;2024-01-15T04:31:53;1.70;99.90
10443;DHT22;5269;51.146;16.986;2024-01-15T04:34:20;1.70;55.10
10443;DHT22;5269;51.146;16.986;2024-01-15T04:36:46;1.80;99.90
10443;DHT22;5269;51.146;16.986;2024-01-15T04:39:15;1.80;1.00
10443;DHT22;5269;51.146;16.986;2024-01-15T04:41:42;1.70;1.00
10443;DHT22;5269;51.146;16.986;2024-01-15T04:44:08;1.80;99.90
10443;DHT22;5269;51.146;16.986;2024-01-15T04:46:35;1.80;1.00
10443;DHT22;5269;51.146;16.986;2024-01-15T04:49:02;1.80;1.00
10443;DHT22;5269;51.146;16.986;2024-01-15T04:51:29;1.80;99.90
10443;DHT22;5269;51.146;16.986;2024-01-15T04:53:56;1.80;21.70
10443;DHT22;5269;51.146;16.986;2024-01-15T04:56:24;1.90;48.60
10443;DHT22;5269;51.146;16.986;2024-01-15T04:58:51;1.90;99.90
10443;DHT22;5269;51.146;16.986;2024-01-15T05:01:18;1.80;1.00
10443;DHT22;5269;51.146;16.986;2024-01-15T05:03:45;1.80;1.00
10443;DHT22;5269;51.146;16.986;2024-01-15T05:06:12;1.90;99.90
10443;DHT22;5269;51.146;16.986;2024-01-15T05:08:39;1.90;99.90
10443;DHT22;5269;51.146;16.986;2024-01-15T05:11:06;1.90;1.00
10443;DHT22;5269;51.146;16.986;2024-01-15T05:13:34;1.90;1.00
10443;DHT22;5269;51.146;16.986;2024-01-15T05:16:01;2.00;99.90
10443;DHT22;5269;51.146;16.986;2024-01-15T05:18:28;1.90;99.90
10443;DHT22;5269;51.146;16.986;2024-01-15T05:20:55;2.00;99.90
10443;DHT22;5269;51.146;16.986;2024-01-15T05:23:21;1.90;99.90
10443;DHT22;5269;51.146;16.986;2024-01-15T05:25:48;1.80;1.00
10443;DHT22;5269;51.146;16.986;2024-01-15T05:28:15;1.60;99.90
10443;DHT22;5269;51.146;16.986;2024-01-15T05:30:44;1.50;1.00
10443;DHT22;5269;51.146;16.986;2024-01-15T05:33:11;1.30;99.90
10443;DHT22;5269;51.146;16.986;2024-01-15T05:35:38;1.30;99.90
10443;DHT22;5269;51.146;16.986;2024-01-15T05:38:04;1.20;99.90
10443;DHT22;5269;51.146;16.986;2024-01-15T05:40:31;1.10;99.90
10443;DHT22;5269;51.146;16.986;2024-01-15T05:42:58;1.10;99.90
10443;DHT22;5269;51.146;16.986;2024-01-15T05:45:26;1.00;99.90
10443;DHT22;5269;51.146;16.986;2024-01-15T05:47:54;1.00;99.90
10443;DHT22;5269;51.146;16.986;2024-01-15T05:50:21;1.00;99.90
10443;DHT22;5269;51.146;16.986;2024-01-15T05:52:48;1.10;99.90
10443;DHT22;5269;51.146;16.986;2024-01-15T05:55:15;1.20;99.90
10443;DHT22;5269;51.146;16.986;2024-01-15T05:57:44;1.20;99.90
10443;DHT22;5269;51.146;16.986;2024-01-15T06:00:11;1.10;99.90
10443;DHT22;5269;51.146;16.986;2024-01-15T06:02:41;1.20;99.90
10443;DHT22;5269;51.146;16.986;2024-01-15T06:05:09;1.20;99.90
10443;DHT22;5269;51.146;16.986;2024-01-15T06:07:36;1.20;99.90
10443;DHT22;5269;51.146;16.986;2024-01-15T06:10:04;1.20;99.90
10443;DHT22;5269;51.146;16.986;2024-01-15T06:12:31;1.20;99.90
10443;DHT22;5269;51.146;16.986;2024-01-15T06:14:59;1.30;99.90
10443;DHT22;5269;51.146;16.986;2024-01-15T06:17:26;1.30;99.90
10443;DHT22;5269;51.146;16.986;2024-01-15T06:19:53;1.40;99.90
10443;DHT22;5269;51.146;16.986;2024-01-15T06:22:21;1.30;99.90
10443;DHT22;5269;51.146;16.986;2024-01-15T06:24:48;1.40;99.90
10443;DHT22;5269;51.146;16.986;2024-01-15T06:27:15;1.40;99.90
10443;DHT22;5269;51.146;16.986;2024-01-15T06:29:45;1.50;99.90
10443;DHT22;5269;51.146;16.986;2024-01-15T06:32:12;1.50;92.80
10443;DHT22;5269;51.146;16.986;2024-01-15T06:34:39;1.50;1.00
10443;DHT22;5269;51.146;16.986;2024-01-15T06:37:06;1.50;1.00
10443;DHT22;5269;51.146;16.986;2024-01-15T06:39:35;1.60;1.00
10443;DHT22;5269;51.146;16.986;2024-01-15T06:42:02;1.60;99.90
10443;DHT22;5269;51.146;16.986;2024-01-15T06:44:29;1.60;99.90
10443;DHT22;5269;51.146;16.986;2024-01-15T06:46:56;1.60;1.00
10443;DHT22;5269;51.146;16.986;2024-01-15T06:49:27;1.60;1.00
10443;DHT22;5269;51.146;16.986;2024-01-15T06:51:55;1.60;1.00
10443;DHT22;5269;51.146;16.986;2024-01-15T06:54:22;1.60;99.90
10443;DHT22;5269;51.146;16.986;2024-01-15T06:56:50;1.60;1.00
10443;DHT22;5269;51.146;16.986;2024-01-15T06:59:17;1.60;99.90
10443;DHT22;5269;51.146;16.986;2024-01-15T07:01:44;1.50;7.50
10443;DHT22;5269;51.146;16.986;2024-01-15T07:04:11;1.60;99.90
10443;DHT22;5269;51.146;16.986;2024-01-15T07:06:38;1.60;99.90
10443;DHT22;5269;51.146;16.986;2024-01-15T07:09:05;1.60;1.00
10443;DHT22;5269;51.146;16.986;2024-01-15T07:11:33;1.60;1.00
10443;DHT22;5269;51.146;16.986;2024-01-15T07:14:02;1.60;1.00
10443;DHT22;5269;51.146;16.986;2024-01-15T07:16:29;1.50;99.90
10443;DHT22;5269;51.146;16.986;2024-01-15T07:18:56;1.60;99.90
10443;DHT22;5269;51.146;16.986;2024-01-15T07:21:22;1.50;99.90
10443;DHT22;5269;51.146;16.986;2024-01-15T07:23:49;1.60;1.00
10443;DHT22;5269;51.146;16.986;2024-01-15T07:26:16;1.60;55.80
10443;DHT22;5269;51.146;16.986;2024-01-15T07:28:43;1.60;1.00
10443;DHT22;5269;51.146;16.986;2024-01-15T07:31:11;1.60;1.00
10443;DHT22;5269;51.146;16.986;2024-01-15T07:33:38;1.60;1.00
10443;DHT22;5269;51.146;16.986;2024-01-15T07:36:07;1.60;99.90
10443;DHT22;5269;51.146;16.986;2024-01-15T07:38:34;1.70;1.00
10443;DHT22;5269;51.146;16.986;2024-01-15T07:41:01;1.70;44.00
10443;DHT22;5269;51.146;16.986;2024-01-15T07:43:29;1.80;99.90
10443;DHT22;5269;51.146;16.986;2024-01-15T07:45:56;1.80;1.00
10443;DHT22;5269;51.146;16.986;2024-01-15T07:48:27;1.70;1.00
10443;DHT22;5269;51.146;16.986;2024-01-15T07:50:54;1.80;99.90
10443;DHT22;5269;51.146;16.986;2024-01-15T07:53:20;1.80;99.90
10443;DHT22;5269;51.146;16.986;2024-01-15T07:55:47;1.80;99.90
10443;DHT22;5269;51.146;16.986;2024-01-15T07:58:14;1.80;99.90
10443;DHT22;5269;51.146;16.986;2024-01-15T08:00:41;1.80;1.00
10443;DHT22;5269;51.146;16.986;2024-01-15T08:03:08;1.90;99.90
10443;DHT22;5269;51.146;16.986;2024-01-15T08:05:37;1.90;99.90
10443;DHT22;5269;51.146;16.986;2024-01-15T08:08:05;1.90;93.10
10443;DHT22;5269;51.146;16.986;2024-01-15T08:10:32;1.90;1.00
10443;DHT22;5269;51.146;16.986;2024-01-15T08:12:59;1.90;1.00
10443;DHT22;5269;51.146;16.986;2024-01-15T08:15:26;1.90;1.00
10443;DHT22;5269;51.146;16.986;2024-01-15T08:17:54;2.00;1.00
10443;DHT22;5269;51.146;16.986;2024-01-15T08:20:21;1.90;1.00
10443;DHT22;5269;51.146;16.986;2024-01-15T08:22:49;1.90;1.00
10443;DHT22;5269;51.146;16.986;2024-01-15T08:25:17;2.00;1.00
10443;DHT22;5269;51.146;16.986;2024-01-15T08:27:44;1.90;1.00
10443;DHT22;5269;51.146;16.986;2024-01-15T08:30:12;2.00;1.00
10443;DHT22;5269;51.146;16.986;2024-01-15T08:32:40;1.90;1.00
10443;DHT22;5269;51.146;16.986;2024-01-15T08:35:08;1.90;1.00
10443;DHT22;5269;51.146;16.986;2024-01-15T08:37:35;1.90;99.90
10443;DHT22;5269;51.146;16.986;2024-01-15T08:40:06;1.90;99.90
10443;DHT22;5269;51.146;16.986;2024-01-15T08:42:34;2.00;99.90
10443;DHT22;5269;51.146;16.986;2024-01-15T08:45:00;2.00;99.90
10443;DHT22;5269;51.146;16.986;2024-01-15T08:47:27;2.00;99.90
10443;DHT22;5269;51.146;16.986;2024-01-15T08:49:54;2.00;99.90
10443;DHT22;5269;51.146;16.986;2024-01-15T08:52:21;2.10;99.90
10443;DHT22;5269;51.146;16.986;2024-01-15T08:54:50;2.10;99.90
10443;DHT22;5269;51.146;16.986;2024-01-15T08:57:19;2.10;99.90
10443;DHT22;5269;51.146;16.986;2024-01-15T08:59:45;2.10;99.90
10443;DHT22;5269;51.146;16.986;2024-01-15T09:02:15;2.20;99.90
10443;DHT22;5269;51.146;16.986;2024-01-15T09:04:42;2.20;83.60
10443;DHT22;5269;51.146;16.986;2024-01-15T09:07:09;2.20;99.90
10443;DHT22;5269;51.146;16.986;2024-01-15T09:09:41;2.20;99.90
10443;DHT22;5269;51.146;16.986;2024-01-15T09:12:08;2.20;99.90
10443;DHT22;5269;51.146;16.986;2024-01-15T09:14:37;2.20;99.90
10443;DHT22;5269;51.146;16.986;2024-01-15T09:17:04;2.20;99.90
10443;DHT22;5269;51.146;16.986;2024-01-15T09:19:31;2.10;99.90
10443;DHT22;5269;51.146;16.986;2024-01-15T09:21:58;2.20;99.90
10443;DHT22;5269;51.146;16.986;2024-01-15T09:24:25;2.20;99.90
10443;DHT22;5269;51.146;16.986;2024-01-15T09:26:53;2.20;99.90
10443;DHT22;5269;51.146;16.986;2024-01-15T09:29:20;2.20;99.90
10443;DHT22;5269;51.146;16.986;2024-01-15T09:31:50;2.20;99.90
10443;DHT22;5269;51.146;16.986;2024-01-15T09:34:18;2.30;99.90
10443;DHT22;5269;51.146;16.986;2024-01-15T09:36:45;2.20;99.90
10443;DHT22;5269;51.146;16.986;2024-01-15T09:39:13;2.30;99.90
10443;DHT22;5269;51.146;16.986;2024-01-15T09:41:41;2.30;99.90
10443;DHT22;5269;51.146;16.986;2024-01-15T09:44:08;2.30;70.90
10443;DHT22;5269;51.146;16.986;2024-01-15T09:46:37;2.40;99.90
10443;DHT22;5269;51.146;16.986;2024-01-15T09:49:06;2.40;1.00
10443;DHT22;5269;51.146;16.986;2024-01-15T09:51:35;2.40;1.00
10443;DHT22;5269;51.146;16.986;2024-01-15T09:54:03;2.40;1.00
10443;DHT22;5269;51.146;16.986;2024-01-15T09:56:31;2.40;1.00
10443;DHT22;5269;51.146;16.986;2024-01-15T09:58:58;2.40;1.00
10443;DHT22;5269;51.146;16.986;2024-01-15T10:01:25;2.40;1.00
10443;DHT22;5269;51.146;16.986;2024-01-15T10:03:52;2.40;1.00
10443;DHT22;5269;51.146;16.986;2024-01-15T10:06:22;2.40;1.00
10443;DHT22;5269;51.146;16.986;2024-01-15T10:08:51;2.40;1.00
10443;DHT22;5269;51.146;16.986;2024-01-15T10:11:20;2.40;1.00
10443;DHT22;5269;51.146;16.986;2024-01-15T10:13:53;2.40;1.00
10443;DHT22;5269;51.146;16.986;2024-01-15T10:16:22;2.40;1.00
10443;DHT22;5269;51.146;16.986;2024-01-15T10:18:52;2.40;1.00
10443;DHT22;5269;51.146;16.986;2024-01-15T10:21:33;2.30;1.00
10443;DHT22;5269;51.146;16.986;2024-01-15T10:24:06;2.40;1.00
10443;DHT22;5269;51.146;16.986;2024-01-15T10:26:34;2.40;1.00
10443;DHT22;5269;51.146;16.986;2024-01-15T10:29:01;2.40;1.00
10443;DHT22;5269;51.146;16.986;2024-01-15T10:31:30;2.30;1.00
10443;DHT22;5269;51.146;16.986;2024-01-15T10:34:10;2.30;1.00
10443;DHT22;5269;51.146;16.986;2024-01-15T10:36:40;2.30;1.00
10443;DHT22;5269;51.146;16.986;2024-01-15T10:39:08;2.20;1.00
10443;DHT22;5269;51.146;16.986;2024-01-15T10:41:38;2.30;1.00
10443;DHT22;5269;51.146;16.986;2024-01-15T10:44:05;2.30;1.00
10443;DHT22;5269;51.146;16.986;2024-01-15T10:46:34;2.50;1.00
10443;DHT22;5269;51.146;16.986;2024-01-15T10:49:01;2.50;1.00
10443;DHT22;5269;51.146;16.986;2024-01-15T10:51:30;2.60;1.00
10443;DHT22;5269;51.146;16.986;2024-01-15T10:54:00;2.50;1.00
10443;DHT22;5269;51.146;16.986;2024-01-15T10:56:28;2.60;1.00
10443;DHT22;5269;51.146;16.986;2024-01-15T10:59:02;2.60;1.00
10443;DHT22;5269;51.146;16.986;2024-01-15T11:01:36;2.60;1.00
10443;DHT22;5269;51.146;16.986;2024-01-15T11:04:06;2.60;1.00
10443;DHT22;5269;51.146;16.986;2024-01-15T11:06:45;2.70;1.00
10443;DHT22;5269;51.146;16.986;2024-01-15T11:09:14;2.80;1.00
10443;DHT22;5269;51.146;16.986;2024-01-15T11:12:07;2.80;1.00
10443;DHT22;5269;51.146;16.986;2024-01-15T11:14:45;2.80;1.00
10443;DHT22;5269;51.146;16.986;2024-01-15T11:17:14;3.00;99.90
10443;DHT22;5269;51.146;16.986;2024-01-15T11:19:45;3.10;99.90
10443;DHT22;5269;51.146;16.986;2024-01-15T11:25:34;3.10;99.90
10443;DHT22;5269;51.146;16.986;2024-01-15T11:28:04;3.00;99.90
10443;DHT22;5269;51.146;16.986;2024-01-15T11:30:31;2.90;99.90
10443;DHT22;5269;51.146;16.986;2024-01-15T11:33:02;2.80;99.90
10443;DHT22;5269;51.146;16.986;2024-01-15T11:35:50;2.80;99.90
10443;DHT22;5269;51.146;16.986;2024-01-15T11:38:27;2.80;99.90
10443;DHT22;5269;51.146;16.986;2024-01-15T11:40:59;2.80;99.90
10443;DHT22;5269;51.146;16.986;2024-01-15T11:43:28;2.80;99.90
10443;DHT22;5269;51.146;16.986;2024-01-15T11:46:04;2.70;99.90
10443;DHT22;5269;51.146;16.986;2024-01-15T11:48:42;2.80;1.00
10443;DHT22;5269;51.146;16.986;2024-01-15T11:51:11;2.80;1.00
10443;DHT22;5269;51.146;16.986;2024-01-15T11:53:43;2.70;1.00
10443;DHT22;5269;51.146;16.986;2024-01-15T11:56:17;2.80;99.90
10443;DHT22;5269;51.146;16.986;2024-01-15T11:58:45;2.70;99.90
10443;DHT22;5269;51.146;16.986;2024-01-15T12:01:13;2.60;99.90
10443;DHT22;5269;51.146;16.986;2024-01-15T12:03:48;2.60;1.00
10443;DHT22;5269;51.146;16.986;2024-01-15T12:06:18;2.60;1.00
10443;DHT22;5269;51.146;16.986;2024-01-15T12:08:49;2.80;1.00
10443;DHT22;5269;51.146;16.986;2024-01-15T12:11:22;2.60;1.00
10443;DHT22;5269;51.146;16.986;2024-01-15T12:13:53;2.70;1.00
10443;DHT22;5269;51.146;16.986;2024-01-15T12:16:28;2.70;1.00
10443;DHT22;5269;51.146;16.986;2024-01-15T12:21:58;2.70;1.00
10443;DHT22;5269;51.146;16.986;2024-01-15T12:24:27;2.80;1.00
10443;DHT22;5269;51.146;16.986;2024-01-15T12:26:58;2.70;1.00
10443;DHT22;5269;51.146;16.986;2024-01-15T12:29:31;2.70;1.00
10443;DHT22;5269;51.146;16.986;2024-01-15T12:32:07;2.70;1.00
10443;DHT22;5269;51.146;16.986;2024-01-15T12:34:44;2.70;1.00
10443;DHT22;5269;51.146;16.986;2024-01-15T12:37:12;2.70;1.00
10443;DHT22;5269;51.146;16.986;2024-01-15T12:39:49;2.70;1.00
10443;DHT22;5269;51.146;16.986;2024-01-15T12:42:23;2.70;1.00
10443;DHT22;5269;51.146;16.986;2024-01-15T12:44:52;2.70;1.00
10443;DHT22;5269;51.146;16.986;2024-01-15T12:47:30;2.80;1.00
10443;DHT22;5269;51.146;16.986;2024-01-15T12:50:13;2.70;99.90
10443;DHT22;5269;51.146;16.986;2024-01-15T12:52:43;2.70;1.00
10443;DHT22;5269;51.146;16.986;2024-01-15T12:55:13;2.70;99.90
10443;DHT22;5269;51.146;16.986;2024-01-15T12:57:44;2.70;1.00
10443;DHT22;5269;51.146;16.986;2024-01-15T13:00:18;2.70;1.00
10443;DHT22;5269;51.146;16.986;2024-01-15T13:02:45;2.60;1.00
10443;DHT22;5269;51.146;16.986;2024-01-15T13:05:14;2.60;1.00
10443;DHT22;5269;51.146;16.986;2024-01-15T13:07:55;2.60;1.00
10443;DHT22;5269;51.146;16.986;2024-01-15T13:10:29;2.60;1.00
10443;DHT22;5269;51.146;16.986;2024-01-15T13:13:00;2.50;1.00
10443;DHT22;5269;51.146;16.986;2024-01-15T13:15:32;2.60;1.00
10443;DHT22;5269;51.146;16.986;2024-01-15T13:18:00;2.60;1.00
10443;DHT22;5269;51.146;16.986;2024-01-15T13:20:32;2.50;1.00
10443;DHT22;5269;51.146;16.986;2024-01-15T13:23:02;2.50;1.00
10443;DHT22;5269;51.146;16.986;2024-01-15T13:25:29;2.50;1.00
10443;DHT22;5269;51.146;16.986;2024-01-15T13:28:02;2.50;1.00
10443;DHT22;5269;51.146;16.986;2024-01-15T13:30:31;2.50;1.00
10443;DHT22;5269;51.146;16.986;2024-01-15T13:33:08;2.50;1.00
10443;DHT22;5269;51.146;16.986;2024-01-15T13:35:39;2.50;1.00
10443;DHT22;5269;51.146;16.986;2024-01-15T13:38:06;2.50;1.00
10443;DHT22;5269;51.146;16.986;2024-01-15T13:40:38;2.40;1.00
10443;DHT22;5269;51.146;16.986;2024-01-15T13:43:12;2.50;1.00
10443;DHT22;5269;51.146;16.986;2024-01-15T13:45:40;2.60;1.00
10443;DHT22;5269;51.146;16.986;2024-01-15T13:48:07;2.50;1.00
10443;DHT22;5269;51.146;16.986;2024-01-15T13:50:34;2.50;1.00
10443;DHT22;5269;51.146;16.986;2024-01-15T13:53:02;2.50;1.00
10443;DHT22;5269;51.146;16.986;2024-01-15T13:55:30;2.60;1.00
10443;DHT22;5269;51.146;16.986;2024-01-15T13:57:57;2.50;1.00
10443;DHT22;5269;51.146;16.986;2024-01-15T14:00:25;2.70;1.00
10443;DHT22;5269;51.146;16.986;2024-01-15T14:02:55;2.50;1.00
10443;DHT22;5269;51.146;16.986;2024-01-15T14:05:23;2.50;1.00
10443;DHT22;5269;51.146;16.986;2024-01-15T14:07:50;2.50;1.00
10443;DHT22;5269;51.146;16.986;2024-01-15T14:10:17;2.60;1.00
10443;DHT22;5269;51.146;16.986;2024-01-15T14:12:44;2.50;1.00
10443;DHT22;5269;51.146;16.986;2024-01-15T14:15:11;2.60;1.00
10443;DHT22;5269;51.146;16.986;2024-01-15T14:17:39;2.50;1.00
10443;DHT22;5269;51.146;16.986;2024-01-15T14:20:07;2.50;1.00
10443;DHT22;5269;51.146;16.986;2024-01-15T14:22:35;2.50;1.00
10443;DHT22;5269;51.146;16.986;2024-01-15T14:25:02;2.60;1.00
10443;DHT22;5269;51.146;16.986;2024-01-15T14:27:30;2.50;1.00
10443;DHT22;5269;51.146;16.986;2024-01-15T14:29:58;2.50;1.00
10443;DHT22;5269;51.146;16.986;2024-01-15T14:32:25;2.60;1.00
10443;DHT22;5269;51.146;16.986;2024-01-15T14:34:53;2.50;1.00
10443;DHT22;5269;51.146;16.986;2024-01-15T14:37:20;2.50;1.00
10443;DHT22;5269;51.146;16.986;2024-01-15T14:39:47;2.50;1.00
10443;DHT22;5269;51.146;16.986;2024-01-15T14:42:14;2.50;1.00
10443;DHT22;5269;51.146;16.986;2024-01-15T14:44:41;2.50;1.00
10443;DHT22;5269;51.146;16.986;2024-01-15T14:47:07;2.50;1.00
10443;DHT22;5269;51.146;16.986;2024-01-15T14:49:34;2.50;1.00
10443;DHT22;5269;51.146;16.986;2024-01-15T14:52:03;2.50;1.00
10443;DHT22;5269;51.146;16.986;2024-01-15T14:54:30;2.50;1.00
10443;DHT22;5269;51.146;16.986;2024-01-15T14:56:57;2.50;1.00
10443;DHT22;5269;51.146;16.986;2024-01-15T14:59:24;2.50;1.00
10443;DHT22;5269;51.146;16.986;2024-01-15T15:01:51;2.50;1.00
10443;DHT22;5269;51.146;16.986;2024-01-15T15:04:19;2.60;1.00
10443;DHT22;5269;51.146;16.986;2024-01-15T15:06:46;2.60;1.00
10443;DHT22;5269;51.146;16.986;2024-01-15T15:09:14;2.50;1.00
10443;DHT22;5269;51.146;16.986;2024-01-15T15:11:41;2.50;1.00
10443;DHT22;5269;51.146;16.986;2024-01-15T15:14:32;2.60;1.00
10443;DHT22;5269;51.146;16.986;2024-01-15T15:17:03;2.60;1.00
10443;DHT22;5269;51.146;16.986;2024-01-15T15:19:32;2.50;1.00
10443;DHT22;5269;51.146;16.986;2024-01-15T15:22:00;2.60;1.00
10443;DHT22;5269;51.146;16.986;2024-01-15T15:24:29;2.50;1.00
10443;DHT22;5269;51.146;16.986;2024-01-15T15:26:56;2.60;1.00
10443;DHT22;5269;51.146;16.986;2024-01-15T15:29:23;2.60;1.00
10443;DHT22;5269;51.146;16.986;2024-01-15T15:31:50;2.50;1.00
10443;DHT22;5269;51.146;16.986;2024-01-15T15:34:17;2.50;1.00
10443;DHT22;5269;51.146;16.986;2024-01-15T15:36:44;2.50;1.00
10443;DHT22;5269;51.146;16.986;2024-01-15T15:39:11;2.50;1.00
10443;DHT22;5269;51.146;16.986;2024-01-15T15:41:43;2.50;1.00
10443;DHT22;5269;51.146;16.986;2024-01-15T15:44:10;2.50;1.00
10443;DHT22;5269;51.146;16.986;2024-01-15T15:46:38;2.50;1.00
10443;DHT22;5269;51.146;16.986;2024-01-15T15:49:05;2.40;1.00
10443;DHT22;5269;51.146;16.986;2024-01-15T15:51:32;2.40;1.00
10443;DHT22;5269;51.146;16.986;2024-01-15T15:54:01;2.40;19.50
10443;DHT22;5269;51.146;16.986;2024-01-15T15:56:28;2.40;1.00
10443;DHT22;5269;51.146;16.986;2024-01-15T15:58:59;2.30;99.90
10443;DHT22;5269;51.146;16.986;2024-01-15T16:01:27;2.30;99.90
10443;DHT22;5269;51.146;16.986;2024-01-15T16:07:20;2.10;1.00
10443;DHT22;5269;51.146;16.986;2024-01-15T16:09:50;2.10;1.00
10443;DHT22;5269;51.146;16.986;2024-01-15T16:15:40;2.10;1.00